createdAt,value
2023-01-20T00:01:48.496Z,98686.69
2023-01-20T00:04:19.620Z,98646.38
2023-01-20T00:06:48.216Z,98632.28
2023-01-20T00:09:18.252Z,98651.81
2023-01-20T00:11:47.063Z,98682.16
2023-01-20T00:14:17.897Z,98681.75
2023-01-20T00:16:46.083Z,98683.13
2023-01-20T00:19:14.687Z,98635.19
2023-01-20T00:21:43.399Z,98638.88
2023-01-20T00:24:11.532Z,98654.56
2023-01-20T00:26:39.712Z,98677.81
2023-01-20T00:29:09.227Z,98674.03
2023-01-20T00:31:38.314Z,98669.09
2023-01-20T00:34:06.584Z,98639.63
2023-01-20T00:36:35.442Z,98690.50
2023-01-20T00:39:04.632Z,98708.13
2023-01-20T00:41:33.004Z,98709.03
2023-01-20T00:44:01.051Z,98699.63
2023-01-20T00:46:29.337Z,98717.75
2023-01-20T00:48:57.694Z,98708.44
2023-01-20T00:51:25.790Z,98728.16
2023-01-20T00:53:54.134Z,98715.34
2023-01-20T00:56:22.278Z,98704.63
2023-01-20T00:58:50.318Z,98700.47
2023-01-20T01:01:18.757Z,98697.00
2023-01-20T01:03:47.025Z,98664.69
2023-01-20T01:06:17.950Z,98552.41
2023-01-20T01:08:46.489Z,98722.06
2023-01-20T01:11:15.015Z,98717.22
2023-01-20T01:13:43.849Z,98639.34
2023-01-20T01:16:14.791Z,98679.13
2023-01-20T01:18:44.048Z,98654.59
2023-01-20T01:21:17.236Z,98706.97
2023-01-20T01:23:46.350Z,98699.63
2023-01-20T01:26:14.625Z,98637.75
2023-01-20T01:28:43.225Z,98695.88
2023-01-20T01:31:11.669Z,98688.34
2023-01-20T01:33:39.855Z,98744.91
2023-01-20T01:36:12.333Z,98737.16
2023-01-20T01:38:41.265Z,98716.66
2023-01-20T01:41:18.227Z,98764.91
2023-01-20T01:44:12.879Z,98780.75
2023-01-20T01:46:42.593Z,98727.88
2023-01-20T01:49:17.888Z,98785.59
2023-01-20T01:51:56.220Z,98771.53
2023-01-20T01:54:31.467Z,98775.00
2023-01-20T01:57:01.091Z,98722.84
2023-01-20T01:59:29.721Z,98762.63
2023-01-20T02:01:58.470Z,98762.97
2023-01-20T02:04:28.796Z,98758.88
2023-01-20T02:07:06.644Z,98712.59
2023-01-20T02:09:36.448Z,98693.19
2023-01-20T02:12:11.261Z,98743.25
2023-01-20T02:14:45.216Z,98734.09
2023-01-20T02:17:31.912Z,98746.38
2023-01-20T02:20:20.304Z,98717.69
2023-01-20T02:23:09.557Z,98751.44
2023-01-20T02:26:09.313Z,98768.72
2023-01-20T02:29:08.003Z,98721.59
2023-01-20T02:32:15.937Z,98701.25
2023-01-20T02:34:58.826Z,98711.53
2023-01-20T02:37:34.034Z,98733.50
2023-01-20T02:40:49.391Z,98750.47
2023-01-20T02:43:51.541Z,98755.00
2023-01-20T02:46:33.215Z,98758.44
2023-01-20T02:49:27.584Z,98757.16
2023-01-20T02:52:17.365Z,98764.09
2023-01-20T02:54:50.567Z,98700.31
2023-01-20T02:57:38.092Z,98705.13
2023-01-20T03:00:17.087Z,98654.03
2023-01-20T03:02:48.529Z,98758.53
2023-01-20T03:05:36.152Z,98759.28
2023-01-20T03:08:09.552Z,98769.97
2023-01-20T03:10:43.991Z,98768.19
2023-01-20T03:13:31.930Z,98779.59
2023-01-20T03:16:06.445Z,98718.75
2023-01-20T03:18:36.710Z,98761.91
2023-01-20T03:21:08.202Z,98769.00
2023-01-20T03:23:41.632Z,98731.94
2023-01-20T03:26:13.587Z,98747.88
2023-01-20T03:28:45.076Z,98802.88
2023-01-20T03:31:24.645Z,98738.63
2023-01-20T03:33:57.485Z,98786.41
2023-01-20T03:36:29.089Z,98766.50
2023-01-20T03:38:58.398Z,98810.09
2023-01-20T03:41:55.032Z,98820.91
2023-01-20T03:44:43.526Z,98829.91
2023-01-20T03:47:36.490Z,98848.06
2023-01-20T03:50:31.844Z,98842.63
2023-01-20T03:53:15.615Z,98819.44
2023-01-20T03:56:04.372Z,98832.53
2023-01-20T03:58:40.257Z,98837.78
2023-01-20T04:01:18.820Z,98817.88
2023-01-20T04:03:53.075Z,98825.84
2023-01-20T04:06:25.508Z,98863.38
2023-01-20T04:09:00.861Z,98840.81
2023-01-20T04:11:30.048Z,98862.28
2023-01-20T04:13:58.490Z,98863.03
2023-01-20T04:16:27.716Z,98864.28
2023-01-20T04:18:57.642Z,98873.22
2023-01-20T04:21:39.950Z,98873.63
2023-01-20T04:24:33.327Z,98824.16
2023-01-20T04:27:10.771Z,98844.44
2023-01-20T04:29:41.571Z,98903.41
2023-01-20T04:32:12.254Z,98857.56
2023-01-20T04:34:40.342Z,98847.31
2023-01-20T04:37:08.212Z,98913.91
2023-01-20T04:39:36.455Z,98925.44
2023-01-20T04:42:05.589Z,98929.63
2023-01-20T04:44:34.025Z,98937.19
2023-01-20T04:47:01.961Z,98893.66
2023-01-20T04:49:30.621Z,98961.09
2023-01-20T04:51:58.509Z,98971.59
2023-01-20T04:54:27.034Z,98966.16
2023-01-20T04:56:55.675Z,98987.22
2023-01-20T04:59:25.416Z,98986.38
2023-01-20T05:01:54.149Z,98920.91
2023-01-20T05:04:24.336Z,98965.50
2023-01-20T05:06:52.327Z,98793.94
2023-01-20T05:09:20.535Z,98983.66
2023-01-20T05:11:49.379Z,98984.06
2023-01-20T05:14:17.954Z,98953.09
2023-01-20T05:16:47.204Z,98987.94
2023-01-20T05:19:15.850Z,98981.25
2023-01-20T05:21:43.882Z,99003.81
2023-01-20T05:24:12.497Z,98960.00
2023-01-20T05:26:41.169Z,99003.78
2023-01-20T05:29:09.935Z,99010.28
2023-01-20T05:31:43.663Z,99014.28
2023-01-20T05:34:12.346Z,99016.66
2023-01-20T05:36:41.063Z,99014.69
2023-01-20T05:39:09.192Z,98997.47
2023-01-20T05:41:41.182Z,98992.97
2023-01-20T05:44:09.381Z,99007.00
2023-01-20T05:46:37.850Z,98970.31
2023-01-20T05:49:05.925Z,98984.16
2023-01-20T05:51:33.829Z,99032.56
2023-01-20T05:54:05.144Z,99015.50
2023-01-20T05:56:33.364Z,99043.53
2023-01-20T05:59:01.252Z,99030.53
2023-01-20T06:01:30.098Z,99030.16
2023-01-20T06:03:58.695Z,99051.44
2023-01-20T06:06:27.389Z,99055.09
2023-01-20T06:08:56.392Z,98990.09
2023-01-20T06:11:24.857Z,99036.56
2023-01-20T06:13:52.836Z,99043.22
2023-01-20T06:16:21.869Z,99041.22
2023-01-20T06:18:49.827Z,98980.97
2023-01-20T06:21:18.152Z,99047.84
2023-01-20T06:23:46.659Z,99055.03
2023-01-20T06:26:15.586Z,99051.38
2023-01-20T06:28:43.666Z,99045.41
2023-01-20T06:31:17.204Z,99048.56
2023-01-20T06:33:45.774Z,99060.59
2023-01-20T06:36:17.036Z,99059.47
2023-01-20T06:38:50.654Z,99061.44
2023-01-20T06:41:20.718Z,99000.47
2023-01-20T06:43:50.356Z,99059.47
2023-01-20T06:46:18.683Z,99013.91
2023-01-20T06:48:47.242Z,99050.13
2023-01-20T06:51:24.541Z,99026.41
2023-01-20T06:53:53.179Z,99073.44
2023-01-20T06:56:22.102Z,99064.06
2023-01-20T06:58:50.251Z,99070.75
2023-01-20T07:01:29.742Z,98996.25
2023-01-20T07:03:58.276Z,99070.13
2023-01-20T07:06:31.303Z,99013.75
2023-01-20T07:09:01.617Z,99038.41
2023-01-20T07:11:31.498Z,99068.19
2023-01-20T07:14:01.590Z,99050.31
2023-01-20T07:16:30.206Z,99064.53
2023-01-20T07:18:58.721Z,99085.84
2023-01-20T07:21:27.289Z,98959.03
2023-01-20T07:23:56.404Z,98939.19
2023-01-20T07:26:26.716Z,98867.34
2023-01-20T07:28:55.131Z,98916.75
2023-01-20T07:31:26.613Z,99074.63
2023-01-20T07:33:58.417Z,99030.63
2023-01-20T07:36:26.740Z,99037.31
2023-01-20T07:38:55.230Z,99072.06
2023-01-20T07:41:23.879Z,99080.22
2023-01-20T07:43:53.790Z,99063.00
2023-01-20T07:46:22.682Z,99078.41
2023-01-20T07:48:50.803Z,99090.63
2023-01-20T07:51:19.453Z,99072.25
2023-01-20T07:53:52.515Z,99087.81
2023-01-20T07:56:26.001Z,99095.16
2023-01-20T07:58:56.273Z,99111.28
2023-01-20T08:01:32.221Z,99109.72
2023-01-20T08:04:01.211Z,99066.53
2023-01-20T08:06:30.617Z,99082.78
2023-01-20T08:09:02.317Z,99108.38
2023-01-20T08:11:32.235Z,99066.28
2023-01-20T08:14:00.419Z,99048.28
2023-01-20T08:16:28.932Z,99080.56
2023-01-20T08:18:57.180Z,99060.16
2023-01-20T08:21:31.602Z,99095.75
2023-01-20T08:24:02.832Z,99114.44
2023-01-20T08:26:35.618Z,99124.25
2023-01-20T08:29:10.420Z,99112.28
2023-01-20T08:31:39.878Z,99152.31
2023-01-20T08:34:08.064Z,99107.69
2023-01-20T08:36:40.290Z,99151.59
2023-01-20T08:39:14.197Z,99149.53
2023-01-20T08:41:44.361Z,99111.06
2023-01-20T08:44:12.909Z,99146.00
2023-01-20T08:46:42.322Z,99142.00
2023-01-20T08:49:17.988Z,99138.56
2023-01-20T08:51:46.258Z,99149.09
2023-01-20T08:54:15.754Z,99132.84
2023-01-20T08:56:44.213Z,99156.41
2023-01-20T08:59:13.039Z,99137.38
2023-01-20T09:01:43.274Z,99162.97
2023-01-20T09:04:11.737Z,99131.28
2023-01-20T09:06:49.080Z,99152.00
2023-01-20T09:09:22.755Z,99136.69
2023-01-20T09:11:51.685Z,99165.06
2023-01-20T09:14:24.878Z,99168.09
2023-01-20T09:16:53.145Z,99166.19
2023-01-20T09:19:21.315Z,99151.94
2023-01-20T09:21:49.845Z,99120.59
2023-01-20T09:24:17.918Z,99143.88
2023-01-20T09:26:47.400Z,99150.06
2023-01-20T09:29:19.804Z,99110.97
2023-01-20T09:31:58.373Z,99144.06
2023-01-20T09:34:29.873Z,99103.41
2023-01-20T09:37:21.693Z,99118.00
2023-01-20T09:40:08.754Z,99141.03
2023-01-20T09:43:07.608Z,99140.59
2023-01-20T09:46:09.385Z,99145.13
2023-01-20T09:49:23.258Z,99140.28
2023-01-20T09:52:41.971Z,99108.34
2023-01-20T09:55:30.703Z,99123.59
2023-01-20T09:58:37.468Z,99149.63
2023-01-20T10:01:21.757Z,99148.50
2023-01-20T10:04:06.139Z,99100.69
2023-01-20T10:07:07.583Z,99148.53
2023-01-20T10:09:56.381Z,99100.06
2023-01-20T10:12:47.940Z,99143.25
2023-01-20T10:15:33.229Z,99113.72
2023-01-20T10:18:34.010Z,99145.25
2023-01-20T10:21:46.937Z,99145.84
2023-01-20T10:24:53.105Z,99150.38
2023-01-20T10:27:24.533Z,99158.38
2023-01-20T10:30:16.130Z,99161.28
2023-01-20T10:32:55.159Z,99130.81
2023-01-20T10:35:31.286Z,99142.81
2023-01-20T10:38:00.118Z,99142.09
2023-01-20T10:40:47.974Z,99078.94
2023-01-20T10:43:17.956Z,99145.00
2023-01-20T10:46:17.550Z,99113.16
2023-01-20T10:48:54.590Z,99162.09
2023-01-20T10:52:10.613Z,99177.34
2023-01-20T10:54:53.349Z,99172.97
2023-01-20T10:57:21.940Z,99164.63
2023-01-20T10:59:55.178Z,99162.75
2023-01-20T11:02:32.168Z,99115.13
2023-01-20T11:05:10.334Z,99134.69
2023-01-20T11:07:38.600Z,99119.59
2023-01-20T11:10:22.496Z,99112.13
2023-01-20T11:12:55.517Z,99124.41
2023-01-20T11:15:33.910Z,99140.66
2023-01-20T11:18:16.447Z,99158.31
2023-01-20T11:21:08.556Z,99140.47
2023-01-20T11:23:57.671Z,99154.88
2023-01-20T11:26:36.003Z,99146.75
2023-01-20T11:29:10.224Z,99151.78
2023-01-20T11:31:55.098Z,99112.44
2023-01-20T11:34:36.501Z,99142.75
2023-01-20T11:37:10.870Z,99153.34
2023-01-20T11:39:51.806Z,99175.88
2023-01-20T11:42:27.715Z,99114.38
2023-01-20T11:45:19.744Z,99187.00
2023-01-20T11:48:06.283Z,99188.47
2023-01-20T11:50:40.492Z,99192.44
2023-01-20T11:53:23.414Z,99190.50
2023-01-20T11:56:01.488Z,99189.59
2023-01-20T11:58:49.190Z,99203.34
2023-01-20T12:02:20.130Z,99212.06
2023-01-20T12:05:16.579Z,99218.13
2023-01-20T12:07:51.611Z,99207.00
2023-01-20T12:10:30.056Z,99219.09
2023-01-20T12:14:00.895Z,99204.69
2023-01-20T12:16:32.542Z,99202.44
2023-01-20T12:19:09.946Z,99211.31
2023-01-20T12:21:47.939Z,99205.72
2023-01-20T12:25:09.615Z,99164.16
2023-01-20T12:27:48.739Z,99182.00
2023-01-20T12:31:01.559Z,99179.69
2023-01-20T12:33:40.745Z,99177.06
2023-01-20T12:36:38.066Z,99178.44
2023-01-20T12:39:46.473Z,99168.88
2023-01-20T12:42:42.291Z,99165.06
2023-01-20T12:45:28.149Z,99164.78
2023-01-20T12:48:36.991Z,99148.41
2023-01-20T12:51:22.842Z,99171.75
2023-01-20T12:54:47.172Z,99174.69
2023-01-20T12:57:44.229Z,99132.56
2023-01-20T13:00:37.621Z,99180.03
2023-01-20T13:03:33.375Z,99191.88
2023-01-20T13:06:42.623Z,99159.81
2023-01-20T13:09:19.539Z,99199.28
2023-01-20T13:12:29.708Z,99202.38
2023-01-20T13:15:20.095Z,99206.16
2023-01-20T13:18:24.958Z,99193.06
2023-01-20T13:20:55.095Z,99197.00
2023-01-20T13:23:32.343Z,99211.34
2023-01-20T13:26:03.865Z,99155.75
2023-01-20T13:28:32.460Z,99164.50
2023-01-20T13:31:22.762Z,99134.53
2023-01-20T13:33:50.852Z,99191.25
2023-01-20T13:36:21.181Z,99183.50
2023-01-20T13:39:11.554Z,99187.63
2023-01-20T13:41:52.423Z,99186.47
2023-01-20T13:44:42.404Z,99189.44
2023-01-20T13:47:12.350Z,99187.03
2023-01-20T13:49:54.935Z,99106.56
2023-01-20T13:52:51.044Z,99183.81
2023-01-20T13:55:51.295Z,99162.72
2023-01-20T13:58:36.198Z,99169.47
2023-01-20T14:01:10.744Z,99177.34
2023-01-20T14:03:40.268Z,99175.94
2023-01-20T14:06:21.521Z,99183.69
2023-01-20T14:08:51.747Z,99142.00
2023-01-20T14:11:25.020Z,99190.44
2023-01-20T14:13:54.590Z,99148.91
2023-01-20T14:16:36.969Z,99183.50
2023-01-20T14:19:35.137Z,99181.31
2023-01-20T14:22:19.306Z,99173.97
2023-01-20T14:24:50.122Z,99200.19
2023-01-20T14:27:29.985Z,99177.91
2023-01-20T14:30:20.357Z,99163.94
2023-01-20T14:32:49.356Z,99116.78
2023-01-20T14:35:34.668Z,99027.38
2023-01-20T14:38:03.604Z,99158.69
2023-01-20T14:40:37.795Z,99130.03
2023-01-20T14:43:20.499Z,99135.69
2023-01-20T14:45:52.327Z,99160.81
2023-01-20T14:48:34.085Z,99174.75
2023-01-20T14:51:04.556Z,99171.81
2023-01-20T14:53:33.287Z,99167.00
2023-01-20T14:56:07.977Z,99176.19
2023-01-20T14:58:44.331Z,99173.25
2023-01-20T15:01:23.681Z,99162.09
2023-01-20T15:04:02.289Z,99118.00
2023-01-20T15:06:30.696Z,99152.94
2023-01-20T15:09:06.585Z,99126.06
2023-01-20T15:11:38.547Z,99178.00
2023-01-20T15:14:09.078Z,99178.41
2023-01-20T15:16:38.912Z,99169.41
2023-01-20T15:19:23.214Z,99177.38
2023-01-20T15:21:54.438Z,99116.03
2023-01-20T15:24:31.837Z,99145.19
2023-01-20T15:27:03.049Z,99138.94
2023-01-20T15:29:37.102Z,99120.41
2023-01-20T15:32:12.978Z,99176.31
2023-01-20T15:34:42.641Z,99174.63
2023-01-20T15:37:19.031Z,99190.06
2023-01-20T15:39:48.001Z,99143.00
2023-01-20T15:42:19.291Z,99189.97
2023-01-20T15:44:48.867Z,99157.91
2023-01-20T15:47:27.451Z,99192.41
2023-01-20T15:49:55.844Z,99187.25
2023-01-20T15:52:25.170Z,99206.66
2023-01-20T15:54:53.649Z,99195.84
2023-01-20T15:57:22.394Z,99207.88
2023-01-20T15:59:50.514Z,99213.09
2023-01-20T16:02:22.705Z,99221.72
2023-01-20T16:04:51.387Z,99216.69
2023-01-20T16:07:21.434Z,99212.19
2023-01-20T16:09:49.808Z,99223.94
2023-01-20T16:12:19.196Z,99234.72
2023-01-20T16:14:47.698Z,99229.19
2023-01-20T16:17:21.149Z,99214.97
2023-01-20T16:19:50.566Z,99189.28
2023-01-20T16:22:19.192Z,99203.38
2023-01-20T16:24:49.502Z,99208.44
2023-01-20T16:27:23.860Z,99194.13
2023-01-20T16:29:53.350Z,99192.25
2023-01-20T16:32:22.563Z,99221.31
2023-01-20T16:34:51.054Z,99220.06
2023-01-20T16:37:19.446Z,99204.13
2023-01-20T16:39:47.987Z,99214.22
2023-01-20T16:42:21.052Z,99218.91
2023-01-20T16:44:49.718Z,99163.94
2023-01-20T16:47:17.957Z,99175.06
2023-01-20T16:49:46.832Z,99210.88
2023-01-20T16:52:15.492Z,99223.78
2023-01-20T16:54:43.889Z,99222.28
2023-01-20T16:57:12.247Z,99228.09
2023-01-20T16:59:40.397Z,99233.31
2023-01-20T17:02:11.385Z,99230.81
2023-01-20T17:04:40.127Z,99242.88
2023-01-20T17:07:08.430Z,99246.53
2023-01-20T17:09:39.427Z,99195.09
2023-01-20T17:12:08.423Z,99253.81
2023-01-20T17:14:36.882Z,99253.94
2023-01-20T17:17:05.342Z,99238.50
2023-01-20T17:19:34.160Z,99264.63
2023-01-20T17:22:02.466Z,99254.41
2023-01-20T17:24:30.703Z,99258.63
2023-01-20T17:27:00.197Z,99220.97
2023-01-20T17:29:29.163Z,99246.34
2023-01-20T17:31:57.930Z,99247.53
2023-01-20T17:34:27.370Z,99246.06
2023-01-20T17:36:57.086Z,99235.94
2023-01-20T17:39:25.248Z,99225.66
2023-01-20T17:41:53.999Z,99212.66
2023-01-20T17:44:22.526Z,99204.34
2023-01-20T17:46:51.028Z,99216.47
2023-01-20T17:49:23.757Z,99211.88
2023-01-20T17:51:52.115Z,99193.53
2023-01-20T17:54:20.830Z,99153.34
2023-01-20T17:56:49.403Z,99218.53
2023-01-20T17:59:17.735Z,99214.97
2023-01-20T18:01:45.925Z,99195.50
2023-01-20T18:04:15.826Z,99211.69
2023-01-20T18:06:44.327Z,99209.06
2023-01-20T18:09:14.950Z,99213.66
2023-01-20T18:11:44.253Z,99176.09
2023-01-20T18:14:13.308Z,99220.50
2023-01-20T18:16:42.069Z,99173.56
2023-01-20T18:19:14.771Z,99238.94
2023-01-20T18:21:44.519Z,99223.13
2023-01-20T18:24:13.699Z,99226.19
2023-01-20T18:26:45.035Z,99221.97
2023-01-20T18:29:20.135Z,99206.88
2023-01-20T18:31:51.848Z,99198.88
2023-01-20T18:34:22.376Z,99190.38
2023-01-20T18:36:51.932Z,99217.00
2023-01-20T18:39:24.615Z,99192.88
2023-01-20T18:41:53.113Z,99202.91
2023-01-20T18:44:23.719Z,99151.75
2023-01-20T18:46:53.172Z,99194.94
2023-01-20T18:49:22.037Z,99148.00
2023-01-20T18:51:51.489Z,99195.59
2023-01-20T18:54:25.797Z,99167.22
2023-01-20T18:56:54.190Z,99190.06
2023-01-20T18:59:23.153Z,99187.66
2023-01-20T19:01:52.075Z,99174.88
2023-01-20T19:04:23.163Z,99176.81
2023-01-20T19:06:51.767Z,99189.97
2023-01-20T19:09:20.357Z,99132.88
2023-01-20T19:11:49.088Z,99179.13
2023-01-20T19:14:18.446Z,99186.91
2023-01-20T19:16:49.907Z,99179.22
2023-01-20T19:19:19.256Z,99185.97
2023-01-20T19:21:52.465Z,99150.63
2023-01-20T19:24:21.755Z,99180.63
2023-01-20T19:26:50.303Z,99176.97
2023-01-20T19:29:20.069Z,99179.03
2023-01-20T19:31:49.410Z,99171.97
2023-01-20T19:34:18.359Z,99173.25
2023-01-20T19:36:47.080Z,99126.88
2023-01-20T19:39:16.731Z,99156.00
2023-01-20T19:41:45.817Z,99167.09
2023-01-20T19:44:15.936Z,99159.13
2023-01-20T19:46:45.129Z,99157.63
2023-01-20T19:49:13.979Z,99126.31
2023-01-20T19:51:42.140Z,99125.41
2023-01-20T19:54:14.467Z,99176.63
2023-01-20T19:56:43.910Z,99114.94
2023-01-20T19:59:14.132Z,99157.38
2023-01-20T20:01:43.005Z,99108.41
2023-01-20T20:04:14.400Z,99156.53
2023-01-20T20:06:47.749Z,99105.25
2023-01-20T20:09:20.966Z,99095.84
2023-01-20T20:11:51.070Z,99125.19
2023-01-20T20:14:22.417Z,99142.47
2023-01-20T20:16:51.544Z,99134.25
2023-01-20T20:19:20.635Z,99100.31
2023-01-20T20:21:50.290Z,99131.53
2023-01-20T20:24:19.532Z,99141.91
2023-01-20T20:26:48.147Z,99105.63
2023-01-20T20:29:19.425Z,99088.25
2023-01-20T20:31:48.302Z,99145.59
2023-01-20T20:34:19.379Z,99132.31
2023-01-20T20:36:48.411Z,99130.59
2023-01-20T20:39:19.273Z,99129.00
2023-01-20T20:41:48.264Z,99118.88
2023-01-20T20:44:18.535Z,99090.41
2023-01-20T20:46:49.090Z,99115.28
2023-01-20T20:49:21.834Z,99099.28
2023-01-20T20:51:50.947Z,99123.75
2023-01-20T20:54:20.983Z,99120.28
2023-01-20T20:56:50.139Z,99116.53
2023-01-20T20:59:23.481Z,99110.91
2023-01-20T21:01:53.657Z,99113.66
2023-01-20T21:04:23.105Z,99114.50
2023-01-20T21:06:52.568Z,99064.31
2023-01-20T21:09:21.340Z,99068.31
2023-01-20T21:11:50.234Z,99063.91
2023-01-20T21:14:21.633Z,99098.78
2023-01-20T21:16:50.683Z,99092.41
2023-01-20T21:19:19.709Z,99084.53
2023-01-20T21:21:47.881Z,99089.84
2023-01-20T21:24:17.312Z,99100.97
2023-01-20T21:26:47.108Z,99084.28
2023-01-20T21:29:15.689Z,99094.19
2023-01-20T21:31:43.953Z,99087.16
2023-01-20T21:34:15.423Z,99087.16
2023-01-20T21:36:44.228Z,99089.56
2023-01-20T21:39:16.802Z,99084.72
2023-01-20T21:41:46.901Z,99070.97
2023-01-20T21:44:39.293Z,99074.06
2023-01-20T21:47:08.412Z,99057.69
2023-01-20T21:49:56.377Z,99014.81
2023-01-20T21:52:45.634Z,99003.41
2023-01-20T21:55:20.216Z,99046.56
2023-01-20T21:57:51.435Z,98991.44
2023-01-20T22:00:22.425Z,99028.44
2023-01-20T22:02:50.654Z,99019.75
2023-01-20T22:05:19.171Z,99012.84
2023-01-20T22:07:48.719Z,98998.97
2023-01-20T22:10:18.099Z,98978.44
2023-01-20T22:12:46.677Z,98940.22
2023-01-20T22:15:15.533Z,98989.63
2023-01-20T22:17:44.299Z,98967.44
2023-01-20T22:20:12.975Z,98951.78
2023-01-20T22:22:41.464Z,98977.63
2023-01-20T22:25:10.307Z,98975.72
2023-01-20T22:27:38.525Z,98975.81
2023-01-20T22:30:09.721Z,98998.66
2023-01-20T22:32:38.698Z,99009.78
2023-01-20T22:35:08.565Z,99012.09
2023-01-20T22:37:37.657Z,99017.44
2023-01-20T22:40:06.451Z,99004.66
2023-01-20T22:42:35.088Z,99018.47
2023-01-20T22:45:04.181Z,98964.72
2023-01-20T22:47:33.835Z,99020.91
2023-01-20T22:50:02.896Z,98998.66
2023-01-20T22:52:31.893Z,98970.00
2023-01-20T22:55:00.553Z,99004.22
2023-01-20T22:57:31.034Z,98991.22
2023-01-20T22:59:59.718Z,98992.06
2023-01-20T23:02:28.170Z,98989.47
2023-01-20T23:04:56.311Z,99005.28
2023-01-20T23:07:24.697Z,99004.88
2023-01-20T23:09:53.874Z,98989.72
2023-01-20T23:12:22.288Z,98991.72
2023-01-20T23:15:00.458Z,98959.31
2023-01-20T23:17:31.486Z,98983.38
2023-01-20T23:20:00.125Z,98962.47
2023-01-20T23:22:30.355Z,98966.97
2023-01-20T23:24:58.602Z,98943.38
2023-01-20T23:27:26.727Z,98963.34
2023-01-20T23:29:56.122Z,98953.59
2023-01-20T23:32:24.732Z,98945.84
2023-01-20T23:34:52.801Z,98914.56
2023-01-20T23:37:21.407Z,98922.69
2023-01-20T23:39:52.735Z,98926.44
2023-01-20T23:42:21.271Z,98943.84
2023-01-20T23:44:49.703Z,98939.44
2023-01-20T23:47:17.982Z,98926.69
2023-01-20T23:49:46.503Z,98918.69
2023-01-20T23:52:14.979Z,98875.28
2023-01-20T23:54:43.311Z,98905.59
2023-01-20T23:57:11.524Z,98870.66
2023-01-20T23:59:40.037Z,98898.06
